This is the latest recevied weather packets stored in our database for station/object SP3VBV-2. If no packets are shown the sender has not sent any weather packets the latest 10 day(s).
| Time | Temp. | Humidity | Pressure | Rain* | Wind** | Luminosity | Snow |
|---|---|---|---|---|---|---|---|
| 1777621313 | 13.33° C | 51% | 1026.8 hPa | - | - | - | - |
| 1777620713 | 12.78° C | 54% | 1026.7 hPa | - | - | - | - |
| 1777620113 | 12.78° C | 52% | 1026.8 hPa | - | - | - | - |
| 1777619513 | 12.78° C | 55% | 1026.7 hPa | - | - | - | - |
| 1777618913 | 12.22° C | 54% | 1026.7 hPa | - | - | - | - |
| 1777618313 | 11.67° C | 54% | 1026.7 hPa | - | - | - | - |
| 1777617713 | 11.67° C | 57% | 1026.7 hPa | - | - | - | - |
| 1777617226 | 11.11° C | 61% | 1026.7 hPa | - | - | - | - |
| 1777617105 | 11.11° C | 61% | 1026.8 hPa | - | - | - | - |
| 1777616505 | 10.56° C | 60% | 1026.7 hPa | - | - | - | - |
| 1777615305 | 10° C | 68% | 1026.8 hPa | - | - | - | - |
| 1777614705 | 9.44° C | 72% | 1026.8 hPa | - | - | - | - |
| 1777614105 | 9.44° C | 74% | 1026.8 hPa | - | - | - | - |
| 1777613505 | 8.89° C | 77% | 1026.8 hPa | - | - | - | - |
| 1777612905 | 8.89° C | 76% | 1026.7 hPa | - | - | - | - |
| 1777612305 | 8.89° C | 74% | 1026.7 hPa | - | - | - | - |
| 1777611705 | 8.33° C | 77% | 1026.6 hPa | - | - | - | - |
| 1777611105 | 8.33° C | 78% | 1026.5 hPa | - | - | - | - |
| 1777610505 | 8.33° C | 78% | 1026.6 hPa | - | - | - | - |
| 1777609905 | 8.33° C | 77% | 1026.5 hPa | - | - | - | - |
| 1777608713 | 7.78° C | 78% | 1026.4 hPa | - | - | - | - |
| 1777607503 | 8.89° C | 71% | 1026.4 hPa | - | - | - | - |
| 1777606903 | 8.89° C | 70% | 1026.4 hPa | - | - | - | - |
| 1777606303 | 8.89° C | 69% | 1026.4 hPa | - | - | - | - |
| 1777605703 | 9.44° C | 68% | 1026.3 hPa | - | - | - | - |
* Rain since midnight (hover to see other rain measurements)
** Current wind speed in m/s (hover to see current wind gust speed)